Time;durP1;ratioP1;P1;durP2;ratioP2;P2;SDS_P1;SDS_P2;PMS_P1;PMS_P2;Temp;Humidity;BMP_temperature;BMP_pressure;BME280_temperature;BME280_humidity;BME280_pressure;Samples;Min_cycle;Max_cycle;Signal;HPM_P1;HPM_P2
2020/12/20 00:00:35;;;;;;;34.20;19.92;;;;;;;2.74;91.38;101485.91;1758551;80;20930;-70
2020/12/20 00:03:05;;;;;;;31.85;18.85;;;;;;;2.76;91.28;101490.63;1758331;81;22082;-70
2020/12/20 00:05:33;;;;;;;33.92;21.17;;;;;;;2.76;91.20;101482.05;1758470;80;20998;-70
2020/12/20 00:08:02;;;;;;;32.42;19.57;;;;;;;2.75;91.00;101482.48;1758637;80;20950;-70
2020/12/20 00:10:30;;;;;;;34.53;19.92;;;;;;;2.75;90.87;101482.91;1758479;81;21033;-70
2020/12/20 00:12:58;;;;;;;32.38;20.40;;;;;;;2.75;90.87;101493.20;1758558;80;20950;-70
2020/12/20 00:15:26;;;;;;;31.75;18.57;;;;;;;2.73;90.82;101489.34;1758520;80;21133;-70
2020/12/20 00:17:54;;;;;;;31.00;20.27;;;;;;;2.71;90.66;101489.77;1758414;80;20962;-70
2020/12/20 00:20:23;;;;;;;37.23;23.15;;;;;;;2.68;90.81;101493.63;1758536;80;21029;-70
2020/12/20 00:22:52;;;;;;;31.77;19.62;;;;;;;2.66;90.89;101496.20;1758555;81;21579;-70
2020/12/20 00:25:20;;;;;;;34.35;21.07;;;;;;;2.66;90.96;101496.62;1758624;81;21144;-70
2020/12/20 00:27:50;;;;;;;35.92;22.02;;;;;;;2.67;91.06;101497.05;1758480;81;21215;-70
2020/12/20 00:30:18;;;;;;;34.23;21.12;;;;;;;2.68;91.06;101489.77;1758465;81;21540;-70
2020/12/20 00:32:46;;;;;;;33.90;19.65;;;;;;;2.70;91.11;101492.34;1758490;81;20926;-70
2020/12/20 00:35:14;;;;;;;36.83;21.50;;;;;;;2.70;91.19;101498.34;1758492;81;20939;-70
2020/12/20 00:37:43;;;;;;;34.60;19.77;;;;;;;2.73;91.16;101489.77;1758517;81;20953;-71
2020/12/20 00:40:11;;;;;;;35.05;20.52;;;;;;;2.73;91.11;101497.48;1758526;81;21634;-70
2020/12/20 00:42:39;;;;;;;28.60;18.98;;;;;;;2.75;91.13;101502.20;1758434;81;20974;-70
2020/12/20 00:45:08;;;;;;;31.62;19.00;;;;;;;2.76;91.06;101501.34;1758488;80;20934;-70
2020/12/20 00:47:36;;;;;;;30.85;18.52;;;;;;;2.77;91.02;101506.92;1758400;79;20935;-70
2020/12/20 00:50:04;;;;;;;30.60;17.67;;;;;;;2.79;91.03;101506.48;1758586;81;20985;-70
2020/12/20 00:52:33;;;;;;;30.30;18.15;;;;;;;2.79;91.03;101508.63;1758490;81;21259;-70
2020/12/20 00:55:02;;;;;;;26.85;16.32;;;;;;;2.79;91.03;101511.20;1758423;81;21049;-70
2020/12/20 00:57:31;;;;;;;31.77;18.25;;;;;;;2.80;91.04;101508.20;1733779;81;21548;-70
2020/12/20 01:00:00;;;;;;;30.17;19.00;;;;;;;2.80;91.06;101506.45;1758460;80;20974;-70
2020/12/20 01:02:29;;;;;;;36.13;21.65;;;;;;;2.81;90.98;101508.17;1758478;81;21022;-70
2020/12/20 01:04:58;;;;;;;39.08;21.05;;;;;;;2.82;91.01;101503.88;1758483;80;21670;-70
2020/12/20 01:07:26;;;;;;;37.35;19.92;;;;;;;2.82;91.01;101514.17;1758419;81;20969;-70
2020/12/20 01:09:54;;;;;;;34.65;19.40;;;;;;;2.82;90.88;101514.17;1758485;81;20966;-70
2020/12/20 01:12:24;;;;;;;33.50;18.45;;;;;;;2.83;90.87;101514.59;1758402;81;21661;-70
2020/12/20 01:14:54;;;;;;;34.92;20.15;;;;;;;2.82;90.87;101516.74;1756019;81;20985;-70
2020/12/20 01:17:23;;;;;;;31.17;18.50;;;;;;;2.81;90.85;101515.89;1758490;81;21196;-70
2020/12/20 01:19:51;;;;;;;34.20;17.60;;;;;;;2.80;90.81;101515.45;1733591;81;21013;-70
2020/12/20 01:22:20;;;;;;;30.75;18.60;;;;;;;2.82;90.84;101515.45;1758474;81;21025;-70
2020/12/20 01:24:49;;;;;;;26.68;17.52;;;;;;;2.77;90.67;101510.77;1758389;81;21025;-70
2020/12/20 01:27:18;;;;;;;27.17;16.73;;;;;;;2.74;90.73;101509.48;1758482;81;20943;-70
2020/12/20 01:29:46;;;;;;;26.57;16.00;;;;;;;2.72;90.95;101513.34;1758446;81;21396;-70
2020/12/20 01:32:18;;;;;;;30.68;18.35;;;;;;;2.72;91.02;101506.91;1758421;80;20961;-70
2020/12/20 01:34:48;;;;;;;26.12;15.55;;;;;;;2.73;91.01;101506.48;1758509;81;20926;-71
2020/12/20 01:37:17;;;;;;;26.85;16.07;;;;;;;2.73;91.17;101507.77;1758426;81;20942;-70
2020/12/20 01:39:47;;;;;;;30.75;17.20;;;;;;;2.73;91.14;101505.20;1758223;81;20899;-71
2020/12/20 01:42:16;;;;;;;25.45;16.23;;;;;;;2.72;91.17;101504.77;1734900;81;21303;-70
2020/12/20 01:44:45;;;;;;;28.42;18.60;;;;;;;2.73;91.19;101505.20;1758407;81;21049;-71
2020/12/20 01:47:13;;;;;;;26.05;17.23;;;;;;;2.71;91.22;101508.20;1758404;79;20966;-71
2020/12/20 01:49:43;;;;;;;31.33;17.37;;;;;;;2.70;91.11;101515.48;1755034;81;21018;-70
2020/12/20 01:52:12;;;;;;;28.40;18.15;;;;;;;2.68;91.19;101513.77;1733682;81;20950;-70
2020/12/20 01:54:45;;;;;;;27.77;17.45;;;;;;;2.68;91.30;101515.48;1758438;81;21252;-71
2020/12/20 01:57:15;;;;;;;30.62;17.00;;;;;;;2.67;91.38;101515.91;1757775;81;20946;-71
2020/12/20 01:59:55;;;;;;;33.80;17.12;;;;;;;2.69;91.39;101515.91;1756501;80;20993;-70
2020/12/20 02:02:25;;;;;;;27.95;18.15;;;;;;;2.69;91.33;101517.20;1735872;81;21037;-70
2020/12/20 02:04:54;;;;;;;29.85;16.67;;;;;;;2.66;91.35;101515.48;1758460;81;21108;-70
2020/12/20 02:07:23;;;;;;;28.35;17.70;;;;;;;2.66;91.49;101515.48;1758541;81;22230;-71
2020/12/20 02:09:53;;;;;;;32.25;18.05;;;;;;;2.67;91.54;101513.34;1758467;81;21029;-71
2020/12/20 02:12:28;;;;;;;30.32;18.20;;;;;;;2.68;91.54;101505.20;1758452;81;21002;-71
2020/12/20 02:15:01;;;;;;;28.52;17.87;;;;;;;2.68;91.51;101511.63;1757220;81;20989;-71
2020/12/20 02:17:29;;;;;;;35.28;16.60;;;;;;;2.69;91.39;101510.77;1758435;81;20942;-70
2020/12/20 02:20:00;;;;;;;29.25;15.90;;;;;;;2.65;91.23;101509.91;1755238;81;22326;-70
2020/12/20 02:22:47;;;;;;;26.93;16.77;;;;;;;2.63;91.28;101514.20;1758455;81;21504;-71
2020/12/20 02:25:15;;;;;;;25.92;16.07;;;;;;;2.59;91.28;101518.91;1758437;81;21021;-71
2020/12/20 02:27:51;;;;;;;;;;;;;;;2.56;91.42;101518.91;1760257;81;21002;-70
2020/12/20 02:30:21;;;;;;;26.60;16.37;;;;;;;2.57;91.69;101521.05;1758554;81;20473;-71
2020/12/20 02:32:50;;;;;;;28.90;16.40;;;;;;;2.56;91.80;101522.77;1758444;81;21457;-71
2020/12/20 02:35:19;;;;;;;35.15;15.90;;;;;;;2.56;91.77;101520.19;1758354;80;21535;-71
2020/12/20 02:37:48;;;;;;;28.23;15.28;;;;;;;2.56;91.72;101513.77;1758441;81;20966;-71
2020/12/20 02:40:16;;;;;;;30.00;17.32;;;;;;;2.54;91.80;101521.05;1758499;80;20946;-71
2020/12/20 02:42:47;;;;;;;32.65;16.75;;;;;;;2.52;91.78;101525.33;1757915;81;21088;-69
2020/12/20 02:45:16;;;;;;;27.40;17.20;;;;;;;2.49;91.70;101520.18;1758431;80;21268;-68
2020/12/20 02:47:44;;;;;;;28.70;16.57;;;;;;;2.46;91.74;101524.03;1785747;79;21010;-69
2020/12/20 02:50:13;;;;;;;26.27;15.40;;;;;;;2.45;91.90;101530.03;1803436;79;22020;-69
2020/12/20 02:52:43;;;;;;;25.17;16.42;;;;;;;2.44;92.06;101525.74;1803322;79;21551;-69
2020/12/20 02:55:12;;;;;;;22.98;14.87;;;;;;;2.45;92.13;101526.17;1803459;79;21493;-69
2020/12/20 02:57:42;;;;;;;23.18;14.20;;;;;;;2.47;92.14;101536.03;1802624;79;21151;-69
2020/12/20 03:00:24;;;;;;;19.62;12.68;;;;;;;2.49;92.07;101533.89;1799559;79;21013;-69
2020/12/20 03:02:54;;;;;;;19.00;13.22;;;;;;;2.52;91.93;101533.90;1803265;79;21033;-69
2020/12/20 03:05:23;;;;;;;23.55;15.00;;;;;;;2.56;91.79;101536.05;1803326;79;21025;-69
2020/12/20 03:07:53;;;;;;;29.07;17.15;;;;;;;2.58;91.57;101544.62;1803202;79;21056;-70
2020/12/20 03:10:22;;;;;;;23.90;14.98;;;;;;;2.57;91.37;101541.63;1803335;79;21150;-69
2020/12/20 03:12:51;;;;;;;21.52;13.32;;;;;;;2.57;91.23;101544.19;1803255;79;21041;-70
2020/12/20 03:15:20;;;;;;;22.55;13.22;;;;;;;2.54;91.00;101535.19;1803348;79;20946;-70
2020/12/20 03:17:49;;;;;;;27.95;13.65;;;;;;;2.51;91.05;101543.75;1803342;79;20931;-70
2020/12/20 03:20:18;;;;;;;18.98;12.47;;;;;;;2.50;90.93;101545.89;1803354;79;20938;-70
2020/12/20 03:22:47;;;;;;;19.70;13.22;;;;;;;2.48;90.71;101548.89;1803316;79;21184;-70
2020/12/20 03:25:20;;;;;;;18.87;11.73;;;;;;;2.45;90.70;101551.88;1787340;79;20956;-70
2020/12/20 03:28:08;;;;;;;19.23;12.60;;;;;;;2.42;90.72;101554.45;1803397;79;20917;-69
2020/12/20 03:30:47;;;;;;;27.22;12.07;;;;;;;2.39;90.73;101559.19;1799528;79;21005;-71
2020/12/20 03:33:26;;;;;;;13.58;9.88;;;;;;;2.38;90.73;101557.47;1799499;79;20942;-70
2020/12/20 03:36:12;;;;;;;18.17;11.65;;;;;;;2.37;90.55;101566.03;1803014;79;21266;-71
2020/12/20 03:38:40;;;;;;;17.50;12.00;;;;;;;2.34;90.54;101566.88;1803286;79;20934;-71
2020/12/20 03:41:09;;;;;;;14.78;11.15;;;;;;;2.34;90.53;101569.88;1803462;79;21496;-71
2020/12/20 03:43:39;;;;;;;14.87;11.57;;;;;;;2.32;90.53;101566.02;1803292;79;20942;-71
2020/12/20 03:46:07;;;;;;;16.95;11.45;;;;;;;2.33;90.54;101570.73;1803318;79;20934;-70
2020/12/20 03:48:37;;;;;;;17.50;12.15;;;;;;;2.32;90.50;101570.30;1763627;79;22351;-71
2020/12/20 03:51:08;;;;;;;15.72;11.25;;;;;;;2.32;90.46;101572.87;1757340;79;21527;-70
2020/12/20 03:53:38;;;;;;;17.20;10.85;;;;;;;2.32;90.42;101580.59;1758284;81;20970;-71
2020/12/20 03:56:09;;;;;;;18.67;11.15;;;;;;;2.32;90.51;101581.45;1758385;81;21456;-71
2020/12/20 03:58:39;;;;;;;17.02;12.03;;;;;;;2.34;90.52;101582.31;1757552;80;20950;-70
2020/12/20 04:01:08;;;;;;;17.35;11.20;;;;;;;2.35;90.52;101584.45;1758644;81;22079;-70
2020/12/20 04:03:36;;;;;;;15.25;10.78;;;;;;;2.35;90.50;101585.73;1733677;81;20981;-70
2020/12/20 04:06:07;;;;;;;17.80;11.48;;;;;;;2.33;90.46;101583.16;1758543;81;20899;-70
2020/12/20 04:08:35;;;;;;;19.62;12.25;;;;;;;2.32;90.49;101582.73;1735607;81;20926;-71
2020/12/20 04:11:08;;;;;;;19.00;11.78;;;;;;;2.32;90.46;101578.87;1757227;81;20946;-70
2020/12/20 04:13:37;;;;;;;17.80;11.75;;;;;;;2.32;90.50;101585.73;1758554;81;21210;-71
2020/12/20 04:16:09;;;;;;;17.80;11.80;;;;;;;2.33;90.52;101581.02;1758491;81;20950;-71
2020/12/20 04:18:38;;;;;;;19.73;11.70;;;;;;;2.34;90.51;101581.45;1758568;81;20934;-71
2020/12/20 04:21:06;;;;;;;19.15;12.58;;;;;;;2.36;90.53;101593.02;1733828;81;20919;-71
2020/12/20 04:23:35;;;;;;;20.55;12.60;;;;;;;2.32;90.55;101590.44;1758567;81;21014;-70
2020/12/20 04:26:06;;;;;;;24.85;13.80;;;;;;;2.32;90.59;101587.88;1756367;81;21282;-70
2020/12/20 04:28:36;;;;;;;21.20;13.35;;;;;;;2.33;90.64;101591.30;1754868;81;20954;-70
2020/12/20 04:31:09;;;;;;;22.27;14.33;;;;;;;2.34;90.76;101584.02;1756682;81;20942;-70
2020/12/20 04:33:39;;;;;;;23.07;14.13;;;;;;;2.34;90.63;101591.30;1758488;81;20927;-70
2020/12/20 04:36:12;;;;;;;19.80;12.88;;;;;;;2.34;90.58;101595.16;1757983;81;20958;-70
2020/12/20 04:38:41;;;;;;;22.93;13.60;;;;;;;2.30;90.45;101599.00;1733681;81;21603;-70
2020/12/20 04:41:11;;;;;;;19.75;12.20;;;;;;;2.27;90.65;101601.13;1758465;81;20944;-70
2020/12/20 04:43:40;;;;;;;23.18;13.58;;;;;;;2.28;90.81;101603.28;1758574;80;21041;-70
2020/12/20 04:46:09;;;;;;;24.63;14.00;;;;;;;2.27;90.72;101606.70;1733979;81;20946;-71
2020/12/20 04:48:42;;;;;;;25.62;15.30;;;;;;;2.25;90.87;101609.69;1791022;79;20986;-70
2020/12/20 04:51:12;;;;;;;24.47;13.60;;;;;;;2.24;90.93;101604.13;1803424;79;21197;-71
2020/12/20 04:53:40;;;;;;;29.80;16.60;;;;;;;2.23;90.99;101613.97;1803390;79;21029;-71
2020/12/20 04:56:12;;;;;;;29.55;15.40;;;;;;;2.25;91.05;101614.41;1802991;79;21018;-71
2020/12/20 04:58:42;;;;;;;21.00;13.78;;;;;;;2.25;91.03;101613.13;1800143;79;20950;-71
2020/12/20 05:01:11;;;;;;;31.33;18.30;;;;;;;2.24;91.04;101618.25;1803457;79;21025;-71
2020/12/20 05:03:39;;;;;;;33.70;17.62;;;;;;;2.25;91.26;101627.68;1803498;79;22094;-71
2020/12/20 05:06:07;;;;;;;18.35;12.28;;;;;;;2.25;91.21;101625.11;1803511;79;21377;-71
2020/12/20 05:08:37;;;;;;;43.13;22.73;;;;;;;2.26;91.21;101634.11;1803455;79;20947;-70
2020/12/20 05:11:05;;;;;;;34.78;19.20;;;;;;;2.27;91.28;101633.26;1803401;79;20938;-70
2020/12/20 05:13:41;;;;;;;27.60;17.42;;;;;;;2.29;91.52;101641.84;1803147;79;20955;-70
2020/12/20 05:16:31;;;;;;;;;;;;;;;2.32;91.46;101636.70;1805189;79;21204;-70
2020/12/20 05:19:02;;;;;;;24.52;14.03;;;;;;;2.32;91.15;101636.70;1802485;79;20161;-70
2020/12/20 05:21:31;;;;;;;27.77;17.00;;;;;;;2.29;91.23;101637.98;1803493;79;21579;-70
2020/12/20 05:24:00;;;;;;;26.48;15.90;;;;;;;2.30;91.27;101628.56;1803394;79;20919;-70
2020/12/20 05:26:33;;;;;;;26.57;15.18;;;;;;;2.30;91.21;101633.27;1801376;79;21590;-70
2020/12/20 05:29:09;;;;;;;26.20;13.85;;;;;;;2.30;91.20;101622.99;1803398;79;21159;-70
2020/12/20 05:31:39;;;;;;;21.82;12.70;;;;;;;2.31;91.23;101626.00;1803405;79;21013;-70
2020/12/20 05:34:15;;;;;;;19.77;12.93;;;;;;;2.33;91.56;101637.56;1802073;79;20982;-70
2020/12/20 05:36:45;;;;;;;24.18;14.30;;;;;;;2.38;91.57;101637.59;1746159;79;21053;-72
2020/12/20 05:39:27;;;;;;;29.60;18.57;;;;;;;2.43;91.54;101643.56;1799475;79;20926;-71
2020/12/20 05:42:02;;;;;;;24.55;14.18;;;;;;;2.45;91.28;101658.14;1802873;79;21410;-71
2020/12/20 05:44:32;;;;;;;28.20;14.68;;;;;;;2.47;91.44;101656.44;1771486;79;21037;-71
2020/12/20 05:47:05;;;;;;;25.70;14.65;;;;;;;2.52;91.17;101657.31;1803175;79;21005;-71
2020/12/20 05:49:37;;;;;;;29.70;16.00;;;;;;;2.54;90.90;101662.47;1803328;79;20994;-71
2020/12/20 05:52:10;;;;;;;25.88;13.80;;;;;;;2.56;90.86;101658.19;1747451;79;20926;-71
2020/12/20 05:54:42;;;;;;;20.15;13.05;;;;;;;2.60;90.97;101658.62;1803396;79;21256;-71
2020/12/20 05:57:14;;;;;;;23.47;13.93;;;;;;;2.68;91.15;101658.22;1803370;79;21049;-70
2020/12/20 05:59:44;;;;;;;25.08;12.43;;;;;;;2.76;90.61;101659.53;1803400;79;20911;-70
2020/12/20 06:02:13;;;;;;;21.10;12.85;;;;;;;2.75;89.98;101664.24;1803354;79;20998;-69
2020/12/20 06:04:42;;;;;;;19.60;12.90;;;;;;;2.71;89.58;101667.23;1803364;79;21026;-70
2020/12/20 06:07:11;;;;;;;19.00;12.35;;;;;;;2.67;89.30;101661.22;1803406;79;21241;-70
2020/12/20 06:09:54;;;;;;;27.73;14.55;;;;;;;2.63;89.17;101665.06;1803384;79;20942;-70
2020/12/20 06:12:27;;;;;;;32.42;19.37;;;;;;;2.57;89.24;101663.33;1803499;79;21436;-70
2020/12/20 06:14:58;;;;;;;37.90;21.85;;;;;;;2.55;89.42;101660.33;1803394;79;20958;-70
2020/12/20 06:17:29;;;;;;;39.35;22.32;;;;;;;2.50;89.41;101657.73;1803403;79;20946;-70
2020/12/20 06:20:01;;;;;;;25.77;15.38;;;;;;;2.46;89.41;101659.86;1803448;79;21362;-70
2020/12/20 06:22:34;;;;;;;23.98;15.43;;;;;;;2.42;89.31;101665.84;1799713;79;21701;-70
2020/12/20 06:25:05;;;;;;;19.60;12.60;;;;;;;2.37;89.30;101665.00;1803154;79;20962;-70
2020/12/20 06:27:35;;;;;;;32.85;17.37;;;;;;;2.33;89.42;101677.41;1803390;79;20935;-69
2020/12/20 06:30:07;;;;;;;30.17;16.70;;;;;;;2.30;89.71;101672.25;1803429;79;20957;-70
2020/12/20 06:32:45;;;;;;;29.95;18.20;;;;;;;2.30;90.13;101675.69;1803351;79;21117;-70
2020/12/20 06:35:26;;;;;;;35.38;20.92;;;;;;;2.30;90.12;101679.97;1802885;79;21021;-71
2020/12/20 06:37:55;;;;;;;37.45;21.90;;;;;;;2.30;89.95;101691.53;1803180;79;32640;-71
2020/12/20 06:40:35;;;;;;;34.20;21.27;;;;;;;2.30;90.02;101688.96;1803375;79;21005;-69
2020/12/20 06:43:03;;;;;;;32.78;20.57;;;;;;;2.28;90.15;101680.38;1803379;79;21587;-70
2020/12/20 06:45:33;;;;;;;38.45;23.87;;;;;;;2.28;90.24;101691.52;1803328;79;21108;-70
2020/12/20 06:48:02;;;;;;;27.32;18.00;;;;;;;2.28;90.18;101698.37;1748546;79;20957;-70
2020/12/20 06:50:42;;;;;;;28.52;17.27;;;;;;;2.26;90.20;101698.37;1814504;79;21041;-70
2020/12/20 06:53:12;;;;;;;27.87;17.95;;;;;;;2.25;90.24;101701.79;1814492;79;21033;-70
2020/12/20 06:55:41;;;;;;;34.58;22.22;;;;;;;2.26;90.35;101691.94;1814464;79;21067;-70
2020/12/20 06:58:17;;;;;;;37.20;21.73;;;;;;;2.26;90.40;101694.94;1814483;79;21179;-69
2020/12/20 07:00:55;;;;;;;32.33;22.30;;;;;;;2.26;90.49;101693.23;1814578;79;20953;-70
2020/12/20 07:03:37;;;;;;;38.13;21.00;;;;;;;2.27;90.41;101697.52;1814480;79;21032;-70
2020/12/20 07:06:14;;;;;;;43.60;23.27;;;;;;;2.29;90.63;101698.38;1814378;79;20938;-70
2020/12/20 07:09:07;;;;;;;40.78;20.62;;;;;;;2.31;90.63;101682.97;1813364;79;20954;-70
2020/12/20 07:11:49;;;;;;;45.55;23.52;;;;;;;2.31;90.73;101679.97;1814664;79;22183;-70
2020/12/20 07:14:22;;;;;;;34.70;20.70;;;;;;;2.32;90.84;101684.27;1813985;79;21005;-71
2020/12/20 07:16:51;;;;;;;34.43;18.32;;;;;;;2.36;90.84;101688.99;1814632;79;20933;-71
2020/12/20 07:19:25;;;;;;;26.05;15.03;;;;;;;2.39;90.79;101690.29;1814436;79;20997;-70
2020/12/20 07:21:57;;;;;;;32.63;14.93;;;;;;;2.40;90.79;101688.13;1814490;79;21590;-70
2020/12/20 07:24:30;;;;;;;28.77;15.50;;;;;;;2.44;90.82;101691.14;1814469;79;21295;-70
2020/12/20 07:27:02;;;;;;;38.83;20.35;;;;;;;2.47;90.67;101691.58;1814500;79;21373;-68
2020/12/20 07:29:38;;;;;;;39.13;21.20;;;;;;;2.48;90.54;101698.01;1814610;79;21021;-68
2020/12/20 07:32:06;;;;;;;34.58;18.57;;;;;;;2.49;90.58;101700.16;1814724;79;21068;-69
2020/12/20 07:34:34;;;;;;;31.57;19.67;;;;;;;2.50;90.62;101707.02;1814637;79;21013;-69
2020/12/20 07:37:02;;;;;;;50.50;30.05;;;;;;;2.51;90.73;101708.30;1814615;79;21375;-69
2020/12/20 07:39:30;;;;;;;57.25;33.67;;;;;;;2.53;90.77;101704.03;1814743;79;21381;-69
2020/12/20 07:42:00;;;;;;;50.50;31.77;;;;;;;2.55;90.83;101708.75;1814626;78;20938;-69
2020/12/20 07:44:34;;;;;;;40.12;23.27;;;;;;;2.59;90.78;101714.34;1814682;79;21570;-70
2020/12/20 07:47:11;;;;;;;29.02;18.05;;;;;;;2.60;90.50;101712.63;1814642;79;21005;-70
2020/12/20 07:49:41;;;;;;;30.40;15.72;;;;;;;2.60;90.67;101712.63;1805987;79;21828;-70
2020/12/20 07:52:09;;;;;;;26.27;15.98;;;;;;;2.61;90.79;101720.35;1803529;79;20934;-70
2020/12/20 07:54:37;;;;;;;26.57;14.63;;;;;;;2.64;90.81;101717.80;1803553;79;20990;-70
2020/12/20 07:57:06;;;;;;;23.32;14.15;;;;;;;2.68;90.74;101715.66;1803468;79;20902;-70
2020/12/20 07:59:35;;;;;;;24.10;14.75;;;;;;;2.70;90.64;101714.81;1803474;79;20970;-70
2020/12/20 08:02:04;;;;;;;24.27;14.18;;;;;;;2.73;90.69;101718.68;1803500;79;21199;-71
2020/12/20 08:04:32;;;;;;;41.23;14.50;;;;;;;2.75;90.64;101722.98;1803461;79;22381;-71
2020/12/20 08:07:00;;;;;;;19.57;12.90;;;;;;;2.77;90.55;101720.41;1803511;79;20934;-72
2020/12/20 08:09:28;;;;;;;20.72;12.90;;;;;;;2.76;90.29;101717.41;1803454;79;20934;-70
2020/12/20 08:11:56;;;;;;;23.32;13.45;;;;;;;2.72;90.27;101728.11;1777698;79;20930;-71
2020/12/20 08:14:27;;;;;;;17.67;12.10;;;;;;;2.66;90.33;101719.08;1803464;79;21637;-70
2020/12/20 08:16:55;;;;;;;22.02;13.25;;;;;;;2.64;90.75;101720.36;1803410;79;20993;-70
2020/12/20 08:19:29;;;;;;;19.62;11.95;;;;;;;2.64;90.83;101716.50;1803459;79;20954;-71
2020/12/20 08:22:08;;;;;;;19.27;12.63;;;;;;;2.66;90.90;101716.52;1803530;79;21365;-71
2020/12/20 08:24:39;;;;;;;20.55;12.78;;;;;;;2.68;90.79;101716.09;1803545;79;21016;-71
2020/12/20 08:27:31;;;;;;;22.48;14.05;;;;;;;2.70;90.82;101718.23;1803456;79;21190;-71
2020/12/20 08:30:04;;;;;;;21.55;14.45;;;;;;;2.73;90.87;101716.97;1803432;79;20958;-70
2020/12/20 08:32:39;;;;;;;22.90;14.60;;;;;;;2.76;90.81;101709.27;1803581;79;21539;-70
2020/12/20 08:35:16;;;;;;;19.73;13.95;;;;;;;2.81;90.90;101715.67;1803429;79;20891;-70
2020/12/20 08:37:46;;;;;;;28.65;15.03;;;;;;;2.84;90.88;101711.83;1803530;79;21051;-70
2020/12/20 08:40:16;;;;;;;23.27;14.13;;;;;;;2.86;90.90;101712.27;1803425;79;21264;-71
2020/12/20 08:42:46;;;;;;;21.20;13.60;;;;;;;2.87;90.74;101708.83;1803521;79;20986;-71
2020/12/20 08:45:18;;;;;;;25.77;12.55;;;;;;;2.90;90.77;101706.70;1803501;79;20978;-71
2020/12/20 08:47:46;;;;;;;21.77;13.50;;;;;;;2.92;90.75;101703.70;1803400;79;20931;-72
2020/12/20 08:50:25;;;;;;;24.07;14.58;;;;;;;2.96;90.76;101709.28;1812883;79;20977;-71
2020/12/20 08:53:07;;;;;;;21.57;14.05;;;;;;;2.98;90.78;101717.44;1814372;79;21217;-71
2020/12/20 08:55:35;;;;;;;22.55;14.10;;;;;;;2.99;90.60;101709.30;1814590;79;21440;-71
2020/12/20 08:58:06;;;;;;;25.17;14.85;;;;;;;3.01;90.70;101713.59;1814548;79;20989;-71
2020/12/20 09:00:35;;;;;;;22.15;13.75;;;;;;;3.04;90.50;101717.88;1814482;79;20985;-71
2020/12/20 09:03:04;;;;;;;19.40;13.70;;;;;;;3.05;90.32;101721.31;1814616;79;21562;-72
2020/12/20 09:05:35;;;;;;;23.25;13.88;;;;;;;3.05;90.29;101723.46;1814602;79;21267;-71
2020/12/20 09:08:05;;;;;;;18.92;12.37;;;;;;;3.07;90.08;101722.18;1814602;79;21435;-71
2020/12/20 09:10:37;;;;;;;20.85;13.50;;;;;;;3.08;89.89;101727.75;1814566;79;20989;-71
2020/12/20 09:13:07;;;;;;;24.07;13.35;;;;;;;3.08;89.68;101731.62;1814459;79;21047;-71
2020/12/20 09:15:37;;;;;;;27.73;14.33;;;;;;;3.09;89.33;101732.91;1814620;79;21547;-71
2020/12/20 09:18:25;;;;;;;29.25;14.40;;;;;;;3.08;89.19;101732.47;1814489;79;21253;-72
2020/12/20 09:20:50;;;;;;;26.95;15.15;;;;;;;3.09;89.08;101732.05;1813890;79;21029;-72
2020/12/20 09:23:23;;;;;;;26.37;15.40;;;;;;;3.08;88.98;101727.33;1814576;79;20945;-71
2020/12/20 09:26:01;;;;;;;34.38;18.42;;;;;;;3.08;88.91;101720.03;1814550;79;21001;-71
2020/12/20 09:28:33;;;;;;;36.77;18.27;;;;;;;3.10;88.82;101719.61;1814617;79;20930;-70
2020/12/20 09:31:16;;;;;;;28.80;16.90;;;;;;;3.08;88.72;101722.19;1814496;79;21259;-70
2020/12/20 09:33:48;;;;;;;22.40;13.08;;;;;;;3.09;88.72;101714.03;1814424;79;20949;-70
2020/12/20 09:36:23;;;;;;;30.52;14.80;;;;;;;3.11;88.46;101713.18;1814597;79;20926;-71
2020/12/20 09:38:56;;;;;;;24.52;15.03;;;;;;;3.10;88.25;101711.89;1814570;79;21471;-69
2020/12/20 09:41:27;;;;;;;23.40;13.55;;;;;;;3.11;88.17;101717.47;1814636;79;20986;-70
2020/12/20 09:43:56;;;;;;;21.23;12.33;;;;;;;3.12;87.98;101718.76;1814507;79;21329;-70
2020/12/20 09:46:39;;;;;;;18.60;10.90;;;;;;;3.12;87.91;101717.90;1814419;79;21009;-72
2020/12/20 09:49:05;;;;;;;15.55;11.43;;;;;;;3.11;87.75;101717.04;1814122;79;21500;-72
2020/12/20 09:51:33;;;;;;;22.87;11.55;;;;;;;3.12;87.75;101720.47;1814413;79;21028;-72
2020/12/20 09:54:01;;;;;;;18.25;12.15;;;;;;;3.10;87.86;101717.90;1814522;79;21017;-72
2020/12/20 09:56:30;;;;;;;18.20;12.15;;;;;;;3.12;88.07;101723.91;1814487;79;21201;-72
2020/12/20 09:58:58;;;;;;;17.90;11.80;;;;;;;3.12;87.73;101720.05;1814376;79;21072;-73
2020/12/20 10:01:27;;;;;;;21.12;13.25;;;;;;;3.12;87.70;101725.63;1814453;79;20941;-72
2020/12/20 10:03:55;;;;;;;20.70;13.03;;;;;;;3.11;87.70;101723.48;1814397;79;20998;-72
2020/12/20 10:06:23;;;;;;;22.15;13.35;;;;;;;3.11;87.60;101719.61;1814484;79;21001;-72
2020/12/20 10:08:52;;;;;;;28.98;14.98;;;;;;;3.11;87.45;101717.47;1797342;78;22170;-72
2020/12/20 10:11:21;;;;;;;29.37;15.95;;;;;;;3.08;87.38;101720.89;1812300;79;21025;-72
2020/12/20 10:13:51;;;;;;;24.40;16.25;;;;;;;3.07;87.28;101721.75;1746861;82;21513;-73
2020/12/20 10:16:21;;;;;;;26.25;15.93;;;;;;;3.07;87.32;101721.75;1813151;79;21018;-72
2020/12/20 10:18:49;;;;;;;29.00;15.28;;;;;;;3.07;87.12;101720.89;1813239;79;21338;-71
2020/12/20 10:21:18;;;;;;;28.10;17.05;;;;;;;3.07;87.04;101729.47;1746484;81;21929;-72
2020/12/20 10:23:48;;;;;;;23.05;14.20;;;;;;;3.06;87.13;101728.18;1812898;79;21053;-72
2020/12/20 10:26:16;;;;;;;26.68;14.28;;;;;;;3.08;87.03;101728.62;1746569;82;21537;-72
2020/12/20 10:28:45;;;;;;;28.42;14.15;;;;;;;3.09;86.96;101731.63;1813549;78;20978;-72
2020/12/20 10:31:18;;;;;;;27.27;15.60;;;;;;;3.11;86.78;101731.63;1814372;79;20973;-72
2020/12/20 10:33:47;;;;;;;33.45;15.80;;;;;;;3.11;86.62;101732.48;1814475;79;21196;-71
2020/12/20 10:36:16;;;;;;;31.00;16.23;;;;;;;3.12;86.66;101729.48;1747065;81;21651;-71
2020/12/20 10:38:45;;;;;;;35.55;21.40;;;;;;;3.14;86.88;101737.64;1814139;79;20937;-70
2020/12/20 10:41:15;;;;;;;34.58;22.22;;;;;;;3.15;86.62;101733.34;1814119;79;21001;-71
2020/12/20 10:43:43;;;;;;;31.55;19.17;;;;;;;3.16;86.58;101736.35;1747577;82;21012;-72
2020/12/20 10:46:12;;;;;;;31.65;19.65;;;;;;;3.17;86.43;101727.34;1813570;79;21425;-72
2020/12/20 10:48:41;;;;;;;36.98;15.90;;;;;;;3.19;86.25;101737.22;1747226;82;20963;-71
2020/12/20 10:51:12;;;;;;;27.55;14.43;;;;;;;3.20;86.12;101727.78;1814315;79;20938;-71
2020/12/20 10:53:40;;;;;;;27.98;13.05;;;;;;;3.19;86.05;101729.50;1740907;82;20920;-71
2020/12/20 10:56:10;;;;;;;32.38;13.00;;;;;;;3.19;85.98;101729.50;1814327;79;20930;-71
2020/12/20 10:58:38;;;;;;;28.27;12.98;;;;;;;3.22;86.19;101719.60;1747803;82;21530;-72
2020/12/20 11:01:06;;;;;;;40.83;12.73;;;;;;;3.26;86.29;101714.89;1814388;79;20902;-71
2020/12/20 11:03:35;;;;;;;34.98;13.68;;;;;;;3.32;86.51;101720.05;1747790;82;21594;-72
2020/12/20 11:06:03;;;;;;;34.58;12.55;;;;;;;3.38;86.30;101719.19;1814658;78;21563;-71
2020/12/20 11:08:31;;;;;;;28.15;13.18;;;;;;;3.44;86.35;101721.77;1747899;82;21062;-70
2020/12/20 11:11:00;;;;;;;34.30;13.25;;;;;;;3.50;85.94;101717.91;1814652;79;21249;-71
2020/12/20 11:13:28;;;;;;;32.13;12.45;;;;;;;3.52;85.32;101722.64;1748051;82;21438;-70
2020/12/20 11:15:57;;;;;;;34.25;12.37;;;;;;;3.52;84.85;101721.34;1814706;78;21005;-71
2020/12/20 11:18:28;;;;;;;21.80;11.38;;;;;;;3.49;84.74;101723.92;1814578;79;20997;-65
2020/12/20 11:20:56;;;;;;;20.85;11.55;;;;;;;3.46;84.60;101724.78;1747989;82;21485;-66
2020/12/20 11:23:24;;;;;;;16.15;9.03;;;;;;;3.46;84.47;101726.50;1814694;79;22055;-70
2020/12/20 11:25:55;;;;;;;21.30;10.05;;;;;;;3.43;84.31;101729.92;1809804;79;21574;-70
2020/12/20 11:28:24;;;;;;;21.85;11.97;;;;;;;3.37;84.36;101735.07;1747795;81;21044;-70
2020/12/20 11:30:53;;;;;;;19.77;10.72;;;;;;;3.34;84.42;101732.06;1814560;79;21640;-70
2020/12/20 11:33:21;;;;;;;22.70;10.45;;;;;;;3.32;84.56;101732.48;1814607;79;20925;-70